createdAt,value
2023-04-14T00:00:46.179Z,14.00
2023-04-14T00:03:14.043Z,11.87
2023-04-14T00:05:43.536Z,12.40
2023-04-14T00:08:11.273Z,11.23
2023-04-14T00:10:39.095Z,10.60
2023-04-14T00:13:07.217Z,11.17
2023-04-14T00:15:34.903Z,11.50
2023-04-14T00:18:02.591Z,11.30
2023-04-14T00:20:31.016Z,10.60
2023-04-14T00:23:00.067Z,10.03
2023-04-14T00:25:28.038Z,9.40
2023-04-14T00:27:56.000Z,9.47
2023-04-14T00:30:23.693Z,9.53
2023-04-14T00:32:51.813Z,9.93
2023-04-14T00:35:19.728Z,9.00
2023-04-14T00:37:47.795Z,8.60
2023-04-14T00:40:18.660Z,8.07
2023-04-14T00:42:46.668Z,8.60
2023-04-14T00:45:15.163Z,7.73
2023-04-14T00:47:47.070Z,7.37
2023-04-14T00:50:16.282Z,6.70
2023-04-14T00:52:44.994Z,6.80
2023-04-14T00:55:13.124Z,8.07
2023-04-14T00:57:42.512Z,7.10
2023-04-14T01:00:11.186Z,6.37
2023-04-14T01:02:39.120Z,7.73
2023-04-14T01:05:08.001Z,7.13
2023-04-14T01:07:36.348Z,7.33
2023-04-14T01:10:04.909Z,7.17
2023-04-14T01:12:38.543Z,6.67
2023-04-14T01:15:12.696Z,6.83
2023-04-14T01:17:46.591Z,5.90
2023-04-14T01:20:23.469Z,6.90
2023-04-14T01:22:54.928Z,6.87
2023-04-14T01:25:32.836Z,6.57
2023-04-14T01:28:10.690Z,6.47
2023-04-14T01:30:45.445Z,7.40
2023-04-14T01:33:19.212Z,6.30
2023-04-14T01:35:50.989Z,5.90
2023-04-14T01:38:22.954Z,6.40
2023-04-14T01:40:55.361Z,6.10
2023-04-14T01:43:26.213Z,6.97
2023-04-14T01:45:56.614Z,6.60
2023-04-14T01:48:27.022Z,6.17
2023-04-14T01:50:56.865Z,6.47
2023-04-14T01:53:26.861Z,5.93
2023-04-14T01:55:55.715Z,5.30
2023-04-14T01:58:24.451Z,12.50
2023-04-14T02:00:52.800Z,6.20
2023-04-14T02:03:21.864Z,5.83
2023-04-14T02:05:52.576Z,6.47
2023-04-14T02:08:21.628Z,5.57
2023-04-14T02:10:50.739Z,6.40
2023-04-14T02:13:21.388Z,5.27
2023-04-14T02:15:50.857Z,5.13
2023-04-14T02:18:21.000Z,6.17
2023-04-14T02:20:49.186Z,5.83
2023-04-14T02:23:18.933Z,5.97
2023-04-14T02:25:50.744Z,5.80
2023-04-14T02:28:20.481Z,5.73
2023-04-14T02:30:49.901Z,5.40
2023-04-14T02:33:19.919Z,5.87
2023-04-14T02:35:48.634Z,5.30
2023-04-14T02:38:22.775Z,5.83
2023-04-14T02:40:51.708Z,5.13
2023-04-14T02:43:21.438Z,5.40
2023-04-14T02:45:50.951Z,5.87
2023-04-14T02:48:19.475Z,5.80
2023-04-14T02:50:49.801Z,5.93
2023-04-14T02:53:23.062Z,5.77
2023-04-14T02:55:55.152Z,5.07
2023-04-14T02:58:23.825Z,5.40
2023-04-14T03:00:53.689Z,5.53
2023-04-14T03:03:21.581Z,6.00
2023-04-14T03:05:50.112Z,6.30
2023-04-14T03:08:19.190Z,7.00
2023-04-14T03:10:52.752Z,6.53
2023-04-14T03:13:24.989Z,6.80
2023-04-14T03:15:54.146Z,7.60
2023-04-14T03:18:22.669Z,7.70
2023-04-14T03:20:53.050Z,8.37
2023-04-14T03:23:22.122Z,8.27
2023-04-14T03:26:00.379Z,8.30
2023-04-14T03:28:30.956Z,7.60
2023-04-14T03:31:03.759Z,8.47
2023-04-14T03:33:43.900Z,9.70
2023-04-14T03:36:16.085Z,8.77
2023-04-14T03:38:46.868Z,8.50
2023-04-14T03:41:19.189Z,8.90
2023-04-14T03:43:48.471Z,9.17
2023-04-14T03:46:18.236Z,8.80
2023-04-14T03:48:47.226Z,8.70
2023-04-14T03:51:17.457Z,8.93
2023-04-14T03:53:46.666Z,9.37
2023-04-14T03:56:18.488Z,8.60
2023-04-14T03:58:49.235Z,10.00
2023-04-14T04:01:19.179Z,9.97
2023-04-14T04:03:48.515Z,9.90
2023-04-14T04:06:16.974Z,9.70
2023-04-14T04:08:46.088Z,10.13
2023-04-14T04:11:18.821Z,9.77
2023-04-14T04:13:50.481Z,9.67
2023-04-14T04:16:19.670Z,9.53
2023-04-14T04:18:49.202Z,9.70
2023-04-14T04:21:22.337Z,9.80
2023-04-14T04:23:53.290Z,9.17
2023-04-14T04:26:23.748Z,9.07
2023-04-14T04:28:53.453Z,9.30
2023-04-14T04:31:21.623Z,8.67
2023-04-14T04:33:50.039Z,9.10
2023-04-14T04:36:18.912Z,9.10
2023-04-14T04:38:50.705Z,9.10
2023-04-14T04:41:23.998Z,8.87
2023-04-14T04:43:54.702Z,8.63
2023-04-14T04:46:26.325Z,9.20
2023-04-14T04:48:55.421Z,9.17
2023-04-14T04:51:26.200Z,8.30
2023-04-14T04:53:54.152Z,8.20
2023-04-14T04:56:22.109Z,8.40
2023-04-14T04:58:49.817Z,7.80
2023-04-14T05:01:19.481Z,8.47
2023-04-14T05:03:47.973Z,8.07
2023-04-14T05:06:16.567Z,8.00
2023-04-14T05:08:44.373Z,7.57
2023-04-14T05:11:12.337Z,6.70
2023-04-14T05:13:40.104Z,7.03
2023-04-14T05:16:08.939Z,7.30
2023-04-14T05:18:38.514Z,7.43
2023-04-14T05:21:07.282Z,7.30
2023-04-14T05:23:36.295Z,7.43
2023-04-14T05:26:26.866Z,7.30
2023-04-14T05:28:55.201Z,6.87
2023-04-14T05:31:23.675Z,7.93
2023-04-14T05:33:52.870Z,7.30
2023-04-14T05:36:20.748Z,7.70
2023-04-14T05:38:49.222Z,6.93
2023-04-14T05:41:18.076Z,7.40
2023-04-14T05:43:46.304Z,7.03
2023-04-14T05:46:14.125Z,7.40
2023-04-14T05:48:42.157Z,7.73
2023-04-14T05:51:11.280Z,7.30
2023-04-14T05:53:41.644Z,8.30
2023-04-14T05:56:11.447Z,8.63
2023-04-14T05:58:39.781Z,9.17
2023-04-14T06:01:08.660Z,9.40
2023-04-14T06:03:39.476Z,9.70
2023-04-14T06:06:08.736Z,9.97
2023-04-14T06:08:37.972Z,9.03
2023-04-14T06:11:06.631Z,9.60
2023-04-14T06:13:36.311Z,10.37
2023-04-14T06:16:05.073Z,10.50
2023-04-14T06:18:32.878Z,10.50
2023-04-14T06:21:00.932Z,9.90
2023-04-14T06:23:28.585Z,10.80
2023-04-14T06:25:58.570Z,10.87
2023-04-14T06:28:26.810Z,11.27
2023-04-14T06:30:54.594Z,11.10
2023-04-14T06:33:22.287Z,11.17
2023-04-14T06:35:50.268Z,11.90
2023-04-14T06:38:18.201Z,12.47
2023-04-14T06:40:45.940Z,11.40
2023-04-14T06:43:17.925Z,12.03
2023-04-14T06:45:46.273Z,12.53
2023-04-14T06:48:15.133Z,12.10
2023-04-14T06:50:44.283Z,13.30
2023-04-14T06:53:12.407Z,13.43
2023-04-14T06:55:41.584Z,12.63
2023-04-14T06:58:09.604Z,13.40
2023-04-14T07:00:38.792Z,13.87
2023-04-14T07:03:06.966Z,14.80
2023-04-14T07:05:35.348Z,15.00
2023-04-14T07:08:03.258Z,17.47
2023-04-14T07:10:30.939Z,15.77
2023-04-14T07:12:58.885Z,15.50
2023-04-14T07:15:26.640Z,15.87
2023-04-14T07:17:56.853Z,15.60
2023-04-14T07:20:27.353Z,15.60
2023-04-14T07:22:55.525Z,15.63
2023-04-14T07:25:23.982Z,15.27
2023-04-14T07:28:02.539Z,13.90
2023-04-14T07:30:32.602Z,14.20
2023-04-14T07:33:02.545Z,13.87
2023-04-14T07:35:30.901Z,13.73
2023-04-14T07:37:58.599Z,12.33
2023-04-14T07:40:27.121Z,13.40
2023-04-14T07:42:54.883Z,15.00
2023-04-14T07:45:22.805Z,13.73
2023-04-14T07:47:52.338Z,13.47
2023-04-14T07:50:21.789Z,12.50
2023-04-14T07:52:49.724Z,13.40
2023-04-14T07:55:17.757Z,13.23
2023-04-14T07:57:45.628Z,13.83
2023-04-14T08:00:13.929Z,14.00
2023-04-14T08:02:42.418Z,12.80
2023-04-14T08:05:10.351Z,12.40
2023-04-14T08:07:39.688Z,12.70
2023-04-14T08:10:09.401Z,11.30
2023-04-14T08:12:37.140Z,11.30
2023-04-14T08:15:05.259Z,11.77
2023-04-14T08:17:32.985Z,12.90
2023-04-14T08:20:00.865Z,13.20
2023-04-14T08:22:28.924Z,12.90
2023-04-14T08:24:58.394Z,12.23
2023-04-14T08:27:26.066Z,12.43
2023-04-14T08:29:54.351Z,11.40
2023-04-14T08:32:22.372Z,11.30
2023-04-14T08:35:38.250Z,10.33
2023-04-14T08:37:38.506Z,9.80
2023-04-14T08:40:10.291Z,9.53
2023-04-14T08:42:38.899Z,9.83
2023-04-14T08:45:07.158Z,10.50
2023-04-14T08:47:36.286Z,10.57
2023-04-14T08:50:07.153Z,10.60
2023-04-14T08:52:36.522Z,10.53
2023-04-14T08:55:06.221Z,10.33
2023-04-14T08:57:35.785Z,9.73
2023-04-14T09:00:04.994Z,9.70
2023-04-14T09:02:33.602Z,10.63
2023-04-14T09:05:02.161Z,10.40
2023-04-14T09:07:30.812Z,11.27
2023-04-14T09:09:58.608Z,11.00
2023-04-14T09:12:27.156Z,10.30
2023-04-14T09:14:57.613Z,11.60
2023-04-14T09:17:26.298Z,11.10
2023-04-14T09:20:36.525Z,11.70
2023-04-14T09:22:42.277Z,11.77
2023-04-14T09:25:11.247Z,12.10
2023-04-14T09:27:39.253Z,11.33
2023-04-14T09:30:10.241Z,11.73
2023-04-14T09:32:38.591Z,11.20
2023-04-14T09:35:07.761Z,12.40
2023-04-14T09:37:43.206Z,13.37
2023-04-14T09:40:11.537Z,15.87
2023-04-14T09:42:39.860Z,14.13
2023-04-14T09:45:10.276Z,13.20
2023-04-14T09:47:38.153Z,15.10
2023-04-14T09:50:06.658Z,14.43
2023-04-14T09:52:37.756Z,14.70
2023-04-14T09:55:07.484Z,15.67
2023-04-14T09:57:38.310Z,16.20
2023-04-14T10:00:19.150Z,16.90
2023-04-14T10:02:51.216Z,16.20
2023-04-14T10:05:20.818Z,16.20
2023-04-14T10:07:49.162Z,18.63
2023-04-14T10:10:17.598Z,19.40
2023-04-14T10:12:47.893Z,21.20
2023-04-14T10:15:17.660Z,18.10
2023-04-14T10:17:45.513Z,18.33
2023-04-14T10:20:13.375Z,18.00
2023-04-14T10:22:42.038Z,18.40
2023-04-14T10:25:10.564Z,17.63
2023-04-14T10:27:39.254Z,17.77
2023-04-14T10:30:09.005Z,19.37
2023-04-14T10:32:38.525Z,16.10
2023-04-14T10:35:07.437Z,15.47
2023-04-14T10:37:36.873Z,16.03
2023-04-14T10:40:06.881Z,16.77
2023-04-14T10:42:50.187Z,16.40
2023-04-14T10:45:17.885Z,16.27
2023-04-14T10:47:47.330Z,16.10
2023-04-14T10:50:18.346Z,16.43
2023-04-14T10:52:54.242Z,15.13
2023-04-14T10:55:22.941Z,16.73
2023-04-14T10:57:50.850Z,17.20
2023-04-14T11:00:23.227Z,15.70
2023-04-14T11:02:57.032Z,17.00
2023-04-14T11:05:25.184Z,16.00
2023-04-14T11:08:03.093Z,14.80
2023-04-14T11:10:34.689Z,13.37
2023-04-14T11:13:03.869Z,14.50
2023-04-14T11:15:48.366Z,13.80
2023-04-14T11:18:18.337Z,13.67
2023-04-14T11:20:46.265Z,15.30
2023-04-14T11:23:14.986Z,15.87
2023-04-14T11:25:43.369Z,15.90
2023-04-14T11:28:11.067Z,15.47
2023-04-14T11:30:43.026Z,15.60
2023-04-14T11:33:11.098Z,15.20
2023-04-14T11:35:42.796Z,15.57
2023-04-14T11:38:10.482Z,16.30
2023-04-14T11:40:38.242Z,17.60
2023-04-14T11:43:08.078Z,16.63
2023-04-14T11:45:36.116Z,15.37
2023-04-14T11:48:04.492Z,15.67
2023-04-14T11:50:33.300Z,15.53
2023-04-14T11:53:03.078Z,14.60
2023-04-14T11:55:31.357Z,14.73
2023-04-14T11:57:59.397Z,15.80
2023-04-14T12:00:27.981Z,14.33
2023-04-14T12:02:56.085Z,15.07
2023-04-14T12:05:25.762Z,16.87
2023-04-14T12:07:59.133Z,14.30
2023-04-14T12:10:29.490Z,13.13
2023-04-14T12:13:00.471Z,14.80
2023-04-14T12:15:30.516Z,15.70
2023-04-14T12:17:59.025Z,14.70
2023-04-14T12:20:27.207Z,14.87
2023-04-14T12:23:01.852Z,14.67
2023-04-14T12:25:33.942Z,15.50
2023-04-14T12:28:06.051Z,15.50
2023-04-14T12:30:33.842Z,14.50
2023-04-14T12:33:07.492Z,14.43
2023-04-14T12:35:35.784Z,15.90
2023-04-14T12:38:09.571Z,13.37
2023-04-14T12:40:42.552Z,13.80
2023-04-14T12:43:11.259Z,16.80
2023-04-14T12:45:42.197Z,14.57
2023-04-14T12:48:11.529Z,15.53
2023-04-14T12:50:39.797Z,14.07
2023-04-14T12:53:22.788Z,12.80
2023-04-14T12:56:08.736Z,15.00
2023-04-14T12:58:37.749Z,12.50
2023-04-14T13:01:06.780Z,14.57
2023-04-14T13:03:42.225Z,15.50
2023-04-14T13:06:11.311Z,13.27
2023-04-14T13:08:39.108Z,13.83
2023-04-14T13:11:08.310Z,13.47
2023-04-14T13:13:36.235Z,13.53
2023-04-14T13:16:12.861Z,14.30
2023-04-14T13:18:42.494Z,15.00
2023-04-14T13:21:10.604Z,13.80
2023-04-14T13:23:38.629Z,13.60
2023-04-14T13:26:08.100Z,15.10
2023-04-14T13:28:36.479Z,15.93
2023-04-14T13:31:04.265Z,14.40
2023-04-14T13:33:33.450Z,15.17
2023-04-14T13:36:02.047Z,15.73
2023-04-14T13:38:30.165Z,14.87
2023-04-14T13:40:58.075Z,15.40
2023-04-14T13:43:27.184Z,15.60
2023-04-14T13:45:57.606Z,14.50
2023-04-14T13:48:25.742Z,15.83
2023-04-14T13:51:15.553Z,15.17
2023-04-14T13:53:43.358Z,15.43
2023-04-14T13:56:11.307Z,14.30
2023-04-14T13:58:40.658Z,16.63
2023-04-14T14:01:11.720Z,17.43
2023-04-14T14:03:40.693Z,15.87
2023-04-14T14:06:08.727Z,15.47
2023-04-14T14:08:37.890Z,14.20
2023-04-14T14:11:06.414Z,16.67
2023-04-14T14:13:34.847Z,16.13
2023-04-14T14:16:04.279Z,17.27
2023-04-14T14:18:32.414Z,15.80
2023-04-14T14:21:00.289Z,15.47
2023-04-14T14:23:28.275Z,14.60
2023-04-14T14:25:57.181Z,13.57
2023-04-14T14:28:24.917Z,13.43
2023-04-14T14:30:52.660Z,14.20
2023-04-14T14:33:23.373Z,11.90
2023-04-14T14:35:51.198Z,12.77
2023-04-14T14:38:19.427Z,13.17
2023-04-14T14:40:47.345Z,12.50
2023-04-14T14:43:15.291Z,11.20
2023-04-14T14:45:42.998Z,10.73
2023-04-14T14:48:11.692Z,11.57
2023-04-14T14:50:41.802Z,11.53
2023-04-14T14:53:10.664Z,10.83
2023-04-14T14:55:38.619Z,10.83
2023-04-14T14:58:08.245Z,11.10
2023-04-14T15:00:36.427Z,10.60
2023-04-14T15:03:04.457Z,10.27
2023-04-14T15:05:32.511Z,10.73
2023-04-14T15:08:02.013Z,9.23
2023-04-14T15:10:29.745Z,10.37
2023-04-14T15:12:57.529Z,10.90
2023-04-14T15:15:25.711Z,10.70
2023-04-14T15:17:53.970Z,9.70
2023-04-14T15:20:22.219Z,10.20
2023-04-14T15:22:49.887Z,9.77
2023-04-14T15:25:19.038Z,11.23
2023-04-14T15:27:46.764Z,10.57
2023-04-14T15:30:16.126Z,9.87
2023-04-14T15:32:43.993Z,10.60
2023-04-14T15:35:11.700Z,10.03
2023-04-14T15:37:40.168Z,24.20
2023-04-14T15:40:08.869Z,18.63
2023-04-14T15:42:38.269Z,11.40
2023-04-14T15:45:06.714Z,12.27
2023-04-14T15:47:34.449Z,15.60
2023-04-14T15:50:07.065Z,13.90
2023-04-14T15:52:37.774Z,15.07
2023-04-14T15:55:06.282Z,13.27
2023-04-14T15:57:34.285Z,14.60
2023-04-14T16:00:05.002Z,14.43
2023-04-14T16:02:41.912Z,13.37
2023-04-14T16:05:10.259Z,13.83
2023-04-14T16:07:38.275Z,13.40
2023-04-14T16:10:06.995Z,11.23
2023-04-14T16:12:35.205Z,11.60
2023-04-14T16:15:07.492Z,13.23
2023-04-14T16:17:35.746Z,12.67
2023-04-14T16:20:03.728Z,14.20
2023-04-14T16:22:31.601Z,12.60
2023-04-14T16:24:59.435Z,12.40
2023-04-14T16:27:27.642Z,12.70
2023-04-14T16:29:55.443Z,12.77
2023-04-14T16:32:24.925Z,12.17
2023-04-14T16:34:52.734Z,14.07
2023-04-14T16:37:21.074Z,14.80
2023-04-14T16:39:49.092Z,13.90
2023-04-14T16:42:18.630Z,13.63
2023-04-14T16:44:46.420Z,13.80
2023-04-14T16:47:14.699Z,14.57
2023-04-14T16:49:43.808Z,13.20
2023-04-14T16:52:11.632Z,13.00
2023-04-14T16:54:39.409Z,13.70
2023-04-14T16:57:07.969Z,12.20
2023-04-14T16:59:35.820Z,13.80
2023-04-14T17:02:04.454Z,12.63
2023-04-14T17:04:32.553Z,12.00
2023-04-14T17:07:02.011Z,14.73
2023-04-14T17:09:30.935Z,15.43
2023-04-14T17:11:58.710Z,16.80
2023-04-14T17:14:26.797Z,16.00
2023-04-14T17:16:55.098Z,28.17
2023-04-14T17:19:23.201Z,18.53
2023-04-14T17:21:50.904Z,19.23
2023-04-14T17:24:20.609Z,16.60
2023-04-14T17:26:48.343Z,15.93
2023-04-14T17:29:16.183Z,16.40
2023-04-14T17:31:44.597Z,17.03
2023-04-14T17:34:12.971Z,17.33
2023-04-14T17:36:40.787Z,16.37
2023-04-14T17:39:10.891Z,16.70
2023-04-14T17:41:40.061Z,17.07
2023-04-14T17:44:08.048Z,17.17
2023-04-14T17:46:35.971Z,16.10
2023-04-14T17:49:03.864Z,15.70
2023-04-14T17:51:32.156Z,15.63
2023-04-14T17:54:00.601Z,14.27
2023-04-14T17:56:28.799Z,18.40
2023-04-14T17:58:58.506Z,21.83
2023-04-14T18:01:26.296Z,24.90
2023-04-14T18:03:54.101Z,24.80
2023-04-14T18:06:22.822Z,24.37
2023-04-14T18:08:50.559Z,22.43
2023-04-14T18:11:18.303Z,20.13
2023-04-14T18:13:45.998Z,17.83
2023-04-14T18:16:15.046Z,17.87
2023-04-14T18:18:43.250Z,17.77
2023-04-14T18:21:12.225Z,16.70
2023-04-14T18:23:40.292Z,16.37
2023-04-14T18:28:39.256Z,17.13
2023-04-14T18:31:07.243Z,20.10
2023-04-14T18:33:36.373Z,20.13
2023-04-14T18:36:05.157Z,18.43
2023-04-14T18:38:33.310Z,20.40
2023-04-14T18:41:04.956Z,22.17
2023-04-14T18:43:33.681Z,19.70
2023-04-14T18:46:01.464Z,20.50
2023-04-14T18:48:30.025Z,20.90
2023-04-14T18:51:01.902Z,21.30
2023-04-14T18:53:29.828Z,21.80
2023-04-14T18:55:57.594Z,21.40
2023-04-14T18:58:26.640Z,21.20
2023-04-14T19:00:54.871Z,22.07
2023-04-14T19:03:23.616Z,21.90
2023-04-14T19:05:52.016Z,23.07
2023-04-14T19:08:21.695Z,22.40
2023-04-14T19:10:49.696Z,20.60
2023-04-14T19:13:17.932Z,20.30
2023-04-14T19:15:45.649Z,19.60
2023-04-14T19:18:13.450Z,19.00
2023-04-14T19:20:41.547Z,19.60
2023-04-14T19:23:09.866Z,19.23
2023-04-14T19:25:41.808Z,19.07
2023-04-14T19:28:16.383Z,19.97
2023-04-14T19:30:46.001Z,21.60
2023-04-14T19:33:13.991Z,19.90
2023-04-14T19:35:44.060Z,22.30
2023-04-14T19:38:12.248Z,21.27
2023-04-14T19:40:47.350Z,21.77
2023-04-14T19:43:15.573Z,23.00
2023-04-14T19:45:49.984Z,23.20
2023-04-14T19:48:23.386Z,25.33
2023-04-14T19:50:53.170Z,26.83
2023-04-14T19:53:21.748Z,29.40
2023-04-14T19:55:53.542Z,27.07
2023-04-14T19:58:21.930Z,28.93
2023-04-14T20:00:51.441Z,25.23
2023-04-14T20:03:20.296Z,25.93
2023-04-14T20:05:51.195Z,26.67
2023-04-14T20:08:18.990Z,28.50
2023-04-14T20:10:51.185Z,30.67
2023-04-14T20:13:21.232Z,30.63
2023-04-14T20:15:54.004Z,30.90
2023-04-14T20:18:22.585Z,35.23
2023-04-14T20:20:50.619Z,31.47
2023-04-14T20:23:18.748Z,30.73
2023-04-14T20:25:48.425Z,33.27
2023-04-14T20:28:19.233Z,28.97
2023-04-14T20:30:50.855Z,37.27
2023-04-14T20:33:21.676Z,32.37
2023-04-14T20:35:51.363Z,34.07
2023-04-14T20:38:19.339Z,32.67
2023-04-14T20:40:48.741Z,29.53
2023-04-14T20:43:16.791Z,30.00
2023-04-14T20:45:44.979Z,31.20
2023-04-14T20:48:14.825Z,29.83
2023-04-14T20:50:44.258Z,33.77
2023-04-14T20:53:12.279Z,34.40
2023-04-14T20:55:41.215Z,33.23
2023-04-14T20:58:09.028Z,33.50
2023-04-14T21:00:36.897Z,33.70
2023-04-14T21:03:05.562Z,33.07
2023-04-14T21:05:35.589Z,34.80
2023-04-14T21:08:03.726Z,36.30
2023-04-14T21:10:31.553Z,35.27
2023-04-14T21:15:24.985Z,34.87
2023-04-14T21:15:54.526Z,34.03
2023-04-14T21:18:23.660Z,35.33
2023-04-14T21:20:52.842Z,37.17
2023-04-14T21:23:21.272Z,35.93
2023-04-14T21:25:49.299Z,39.63
2023-04-14T21:28:17.013Z,37.10
2023-04-14T21:30:44.684Z,38.00
2023-04-14T21:33:13.844Z,35.83
2023-04-14T21:35:42.230Z,36.40
2023-04-14T21:38:11.496Z,36.40
2023-04-14T21:40:39.778Z,36.90
2023-04-14T21:43:07.524Z,37.97
2023-04-14T21:45:35.367Z,38.80
2023-04-14T21:48:04.275Z,39.60
2023-04-14T21:50:33.299Z,37.17
2023-04-14T21:53:01.497Z,36.57
2023-04-14T21:55:31.341Z,36.90
2023-04-14T21:58:00.374Z,37.77
2023-04-14T22:00:28.593Z,38.20
2023-04-14T22:02:56.911Z,36.97
2023-04-14T22:05:24.637Z,37.70
2023-04-14T22:07:53.596Z,38.00
2023-04-14T22:10:21.723Z,37.00
2023-04-14T22:12:52.012Z,38.67
2023-04-14T22:15:19.931Z,38.87
2023-04-14T22:17:47.723Z,40.17
2023-04-14T22:20:16.464Z,36.13
2023-04-14T22:22:44.131Z,38.00
2023-04-14T22:25:11.999Z,41.07
2023-04-14T22:27:39.696Z,41.10
2023-04-14T22:30:09.842Z,39.87
2023-04-14T22:32:37.790Z,40.40
2023-04-14T22:35:06.043Z,38.70
2023-04-14T22:37:34.061Z,42.20
2023-04-14T22:40:03.247Z,38.70
2023-04-14T22:42:31.633Z,39.50
2023-04-14T22:44:59.398Z,39.90
2023-04-14T22:47:28.821Z,38.70
2023-04-14T22:49:56.847Z,37.77
2023-04-14T22:52:24.792Z,39.60
2023-04-14T22:54:52.740Z,42.90
2023-04-14T22:57:20.731Z,40.57
2023-04-14T22:59:48.744Z,42.20
2023-04-14T23:02:16.594Z,41.60
2023-04-14T23:04:46.352Z,40.50
2023-04-14T23:07:14.217Z,41.77
2023-04-14T23:09:42.718Z,39.67
2023-04-14T23:12:10.656Z,40.63
2023-04-14T23:14:38.481Z,43.00
2023-04-14T23:17:06.660Z,44.60
2023-04-14T23:19:35.950Z,42.53
2023-04-14T23:22:05.300Z,43.00
2023-04-14T23:24:33.034Z,44.33
2023-04-14T23:27:01.122Z,44.10
2023-04-14T23:29:28.848Z,47.30
2023-04-14T23:31:57.179Z,43.57
2023-04-14T23:34:25.352Z,43.43
2023-04-14T23:36:53.193Z,45.13
2023-04-14T23:39:22.483Z,44.47
2023-04-14T23:41:50.596Z,45.07
2023-04-14T23:44:18.337Z,45.60
2023-04-14T23:46:46.063Z,43.60
2023-04-14T23:49:24.101Z,45.30
2023-04-14T23:52:00.839Z,45.57
2023-04-14T23:54:30.926Z,47.47
2023-04-14T23:56:58.778Z,46.80
2023-04-14T23:59:27.028Z,45.50
